createdAt,value
2023-05-06T00:02:47.208Z,9.50
2023-05-06T00:07:49.515Z,9.80
2023-05-06T00:12:51.772Z,9.50
2023-05-06T00:17:55.603Z,9.55
2023-05-06T00:22:58.031Z,9.20
2023-05-06T00:28:00.232Z,8.95
2023-05-06T00:33:02.431Z,9.23
2023-05-06T00:38:10.327Z,9.27
2023-05-06T00:43:12.474Z,9.73
2023-05-06T00:53:21.814Z,9.73
2023-05-06T00:58:24.009Z,9.77
2023-05-06T01:03:26.392Z,9.50
2023-05-06T01:08:42.138Z,9.27
2023-05-06T01:14:20.768Z,9.52
2023-05-06T01:19:46.696Z,8.70
2023-05-06T01:24:48.941Z,9.40
2023-05-06T01:29:51.132Z,9.40
2023-05-06T01:35:12.166Z,8.55
2023-05-06T01:40:17.849Z,9.02
2023-05-06T01:45:21.942Z,8.02
2023-05-06T01:50:24.192Z,8.38
2023-05-06T01:55:27.075Z,8.70
2023-05-06T02:00:29.350Z,8.45
2023-05-06T02:05:31.800Z,8.60
2023-05-06T02:10:33.928Z,8.40
2023-05-06T02:15:36.158Z,8.98
2023-05-06T02:20:38.258Z,9.73
2023-05-06T02:25:40.415Z,9.38
2023-05-06T02:30:42.733Z,9.40
2023-05-06T02:35:44.876Z,9.32
2023-05-06T02:40:47.047Z,9.73
2023-05-06T02:45:49.197Z,9.57
2023-05-06T02:50:52.157Z,9.05
2023-05-06T02:55:54.627Z,8.88
2023-05-06T03:00:56.875Z,8.63
2023-05-06T03:05:59.048Z,8.57
2023-05-06T03:11:01.567Z,9.00
2023-05-06T03:16:05.265Z,8.90
2023-05-06T03:21:07.589Z,9.10
2023-05-06T03:26:09.913Z,8.98
2023-05-06T03:31:12.301Z,9.15
2023-05-06T03:36:14.779Z,8.80
2023-05-06T03:41:18.110Z,9.10
2023-05-06T03:46:20.295Z,9.27
2023-05-06T03:51:22.663Z,8.88
2023-05-06T03:56:24.892Z,8.65
2023-05-06T04:01:27.054Z,9.23
2023-05-06T04:06:29.252Z,8.52
2023-05-06T04:11:31.794Z,8.63
2023-05-06T04:16:34.094Z,8.93
2023-05-06T04:21:36.224Z,8.40
2023-05-06T04:26:38.423Z,8.40
2023-05-06T04:31:40.640Z,8.52
2023-05-06T04:36:43.455Z,8.73
2023-05-06T04:41:46.207Z,7.53
2023-05-06T04:46:48.644Z,8.27
2023-05-06T04:51:50.959Z,8.93
2023-05-06T04:56:54.126Z,8.95
2023-05-06T05:01:56.281Z,8.27
2023-05-06T05:06:58.728Z,8.40
2023-05-06T05:12:04.484Z,9.07
2023-05-06T05:17:06.818Z,8.47
2023-05-06T05:22:09.052Z,9.57
2023-05-06T05:27:11.268Z,8.35
2023-05-06T05:32:13.630Z,8.52
2023-05-06T05:37:15.895Z,9.30
2023-05-06T05:42:18.056Z,8.93
2023-05-06T05:47:20.710Z,10.27
2023-05-06T05:52:22.922Z,10.10
2023-05-06T05:57:25.194Z,8.63
2023-05-06T06:02:27.706Z,9.25
2023-05-06T06:07:30.024Z,9.43
2023-05-06T06:12:32.210Z,8.52
2023-05-06T06:17:34.471Z,10.27
2023-05-06T06:22:36.837Z,10.23
2023-05-06T06:27:39.037Z,10.93
2023-05-06T06:32:49.537Z,10.27
2023-05-06T06:37:51.746Z,10.40
2023-05-06T06:42:53.969Z,9.68
2023-05-06T06:47:56.153Z,10.02
2023-05-06T06:52:58.411Z,9.05
2023-05-06T06:58:00.823Z,9.93
2023-05-06T07:03:03.120Z,9.40
2023-05-06T07:08:05.726Z,9.65
2023-05-06T07:13:07.938Z,9.57
2023-05-06T07:18:10.198Z,9.48
2023-05-06T07:23:12.363Z,9.53
2023-05-06T07:28:15.769Z,10.27
2023-05-06T07:33:18.000Z,9.65
2023-05-06T07:38:23.928Z,9.60
2023-05-06T07:43:26.099Z,9.48
2023-05-06T07:48:29.735Z,10.37
2023-05-06T07:53:32.023Z,11.02
2023-05-06T07:58:35.684Z,10.82
2023-05-06T08:03:38.151Z,9.67
2023-05-06T08:08:40.635Z,10.15
2023-05-06T08:13:42.853Z,10.60
2023-05-06T08:18:45.065Z,11.02
2023-05-06T08:23:47.310Z,12.25
2023-05-06T08:28:49.886Z,12.17
2023-05-06T08:33:54.326Z,11.35
2023-05-06T08:38:57.194Z,11.87
2023-05-06T08:44:01.996Z,12.98
2023-05-06T08:49:04.181Z,11.85
2023-05-06T08:54:07.582Z,11.70
2023-05-06T08:59:09.734Z,14.10
2023-05-06T09:04:13.082Z,14.80
2023-05-06T09:09:25.515Z,15.07
2023-05-06T09:14:27.884Z,13.50
2023-05-06T09:19:30.268Z,11.97
2023-05-06T09:24:32.579Z,13.13
2023-05-06T09:29:34.756Z,14.20
2023-05-06T09:34:37.061Z,15.85
2023-05-06T09:39:39.351Z,15.10
2023-05-06T09:44:41.827Z,16.00
2023-05-06T09:49:44.421Z,14.90
2023-05-06T09:54:47.464Z,11.43
2023-05-06T09:59:50.805Z,11.20
2023-05-06T10:04:56.399Z,8.30
2023-05-06T10:10:00.407Z,8.93
2023-05-06T10:15:04.453Z,10.05
2023-05-06T10:20:09.715Z,8.23
2023-05-06T10:25:30.184Z,8.23
2023-05-06T10:30:39.863Z,8.80
2023-05-06T10:35:42.458Z,9.47
2023-05-06T10:40:45.121Z,9.10
2023-05-06T10:46:03.613Z,9.60
2023-05-06T10:51:17.776Z,10.13
2023-05-06T10:56:20.202Z,9.43
2023-05-06T11:01:32.270Z,9.37
2023-05-06T11:06:53.950Z,9.07
2023-05-06T11:12:02.673Z,8.17
2023-05-06T11:17:07.248Z,7.95
2023-05-06T11:22:30.470Z,8.13
2023-05-06T11:27:33.850Z,8.00
2023-05-06T11:32:36.349Z,8.07
2023-05-06T11:37:38.678Z,8.60
2023-05-06T11:42:41.038Z,8.75
2023-05-06T11:47:44.720Z,8.70
2023-05-06T11:52:46.986Z,8.37
2023-05-06T11:57:50.011Z,8.00
2023-05-06T12:02:57.431Z,7.37
2023-05-06T12:07:59.818Z,8.13
2023-05-06T12:13:02.512Z,6.97
2023-05-06T12:18:05.692Z,6.60
2023-05-06T12:23:12.605Z,6.43
2023-05-06T12:28:22.246Z,6.40
2023-05-06T12:33:24.454Z,6.70
2023-05-06T12:38:26.788Z,6.43
2023-05-06T12:43:32.509Z,5.40
2023-05-06T12:48:35.412Z,6.43
2023-05-06T12:53:37.787Z,6.73
2023-05-06T12:58:40.143Z,6.53
2023-05-06T13:03:42.388Z,6.57
2023-05-06T13:08:44.641Z,6.40
2023-05-06T13:13:46.923Z,6.22
2023-05-06T13:18:49.624Z,6.17
2023-05-06T13:23:51.826Z,6.30
2023-05-06T13:28:53.991Z,5.87
2023-05-06T13:33:56.397Z,6.83
2023-05-06T13:38:58.653Z,7.65
2023-05-06T13:44:01.231Z,7.77
2023-05-06T13:49:03.486Z,7.43
2023-05-06T13:54:06.175Z,7.57
2023-05-06T13:59:10.061Z,7.07
2023-05-06T14:04:12.852Z,6.28
2023-05-06T14:09:15.040Z,6.87
2023-05-06T14:14:18.563Z,7.78
2023-05-06T14:19:21.149Z,7.70
2023-05-06T14:24:23.397Z,8.20
2023-05-06T14:29:26.888Z,7.72
2023-05-06T14:34:29.077Z,7.97
2023-05-06T14:39:31.317Z,8.80
2023-05-06T14:44:33.503Z,9.30
2023-05-06T14:49:35.762Z,9.70
2023-05-06T14:54:42.356Z,10.50
2023-05-06T14:59:44.856Z,10.20
2023-05-06T15:04:47.127Z,9.75
2023-05-06T15:09:49.358Z,9.70
2023-05-06T15:14:51.533Z,10.40
2023-05-06T15:19:53.986Z,9.68
2023-05-06T15:24:56.214Z,10.00
2023-05-06T15:30:04.268Z,9.75
2023-05-06T15:35:06.771Z,9.40
2023-05-06T15:40:13.321Z,9.13
2023-05-06T15:45:15.660Z,8.73
2023-05-06T15:50:32.857Z,8.37
2023-05-06T15:55:46.482Z,8.68
2023-05-06T16:00:51.644Z,9.10
2023-05-06T16:05:59.376Z,8.37
2023-05-06T16:11:01.657Z,8.30
2023-05-06T16:16:04.244Z,8.27
2023-05-06T16:21:07.604Z,8.82
2023-05-06T16:26:09.839Z,10.23
2023-05-06T16:31:12.109Z,9.27
2023-05-06T16:36:14.499Z,8.55
2023-05-06T16:41:16.718Z,9.87
2023-05-06T16:46:18.951Z,9.70
2023-05-06T16:51:21.282Z,9.80
2023-05-06T16:56:23.903Z,10.17
2023-05-06T17:01:26.904Z,10.50
2023-05-06T17:06:31.346Z,10.00
2023-05-06T17:11:33.513Z,9.90
2023-05-06T17:16:35.812Z,10.73
2023-05-06T17:21:40.217Z,10.80
2023-05-06T17:26:42.401Z,10.90
2023-05-06T17:31:44.787Z,10.60
2023-05-06T17:36:47.030Z,10.95
2023-05-06T17:41:49.352Z,11.73
2023-05-06T17:46:51.774Z,10.50
2023-05-06T17:51:56.044Z,11.38
2023-05-06T17:57:00.783Z,11.53
2023-05-06T18:02:03.306Z,12.43
2023-05-06T18:07:05.619Z,12.30
2023-05-06T18:12:07.999Z,10.95
2023-05-06T18:17:10.266Z,11.60
2023-05-06T18:22:12.487Z,11.70
2023-05-06T18:27:14.740Z,11.48
2023-05-06T18:32:17.880Z,12.25
2023-05-06T18:37:21.694Z,12.23
2023-05-06T18:42:24.146Z,11.95
2023-05-06T18:47:26.353Z,12.50
2023-05-06T18:52:28.529Z,13.02
2023-05-06T18:57:30.807Z,13.40
2023-05-06T19:02:33.066Z,12.63
2023-05-06T19:07:35.452Z,12.95
2023-05-06T19:12:37.924Z,12.50
2023-05-06T19:17:40.150Z,12.70
2023-05-06T19:22:42.613Z,13.35
2023-05-06T19:27:44.841Z,13.40
2023-05-06T19:32:47.052Z,13.05
2023-05-06T19:37:49.249Z,13.87
2023-05-06T19:42:51.560Z,13.23
2023-05-06T19:47:53.743Z,17.67
2023-05-06T19:52:55.953Z,13.73
2023-05-06T19:57:58.238Z,14.50
2023-05-06T20:03:00.815Z,14.33
2023-05-06T20:08:03.421Z,14.30
2023-05-06T20:13:07.114Z,15.20
2023-05-06T20:18:09.601Z,12.60
2023-05-06T20:23:11.940Z,13.62
2023-05-06T20:28:14.208Z,13.03
2023-05-06T20:33:16.734Z,13.55
2023-05-06T20:38:19.793Z,14.30
2023-05-06T20:43:21.972Z,13.70
2023-05-06T20:48:24.279Z,13.77
2023-05-06T20:53:27.338Z,14.73
2023-05-06T20:58:29.686Z,14.63
2023-05-06T21:03:31.923Z,14.43
2023-05-06T21:08:34.220Z,14.23
2023-05-06T21:13:36.518Z,13.40
2023-05-06T21:18:38.809Z,12.97
2023-05-06T21:23:41.114Z,12.77
2023-05-06T21:28:47.857Z,12.25
2023-05-06T21:33:55.618Z,12.55
2023-05-06T21:39:06.908Z,13.57
2023-05-06T21:44:09.415Z,12.30
2023-05-06T21:49:11.579Z,13.13
2023-05-06T21:54:13.896Z,14.75
2023-05-06T21:59:16.069Z,13.95
2023-05-06T22:04:20.063Z,14.02
2023-05-06T22:09:23.367Z,14.07
2023-05-06T22:14:30.355Z,13.68
2023-05-06T22:19:35.987Z,12.70
2023-05-06T22:24:39.611Z,11.70
2023-05-06T22:29:41.776Z,11.02
2023-05-06T22:34:43.952Z,10.03
2023-05-06T22:39:47.500Z,10.02
2023-05-06T22:44:49.790Z,8.25
2023-05-06T22:49:51.998Z,8.52
2023-05-06T22:54:54.163Z,8.07
2023-05-06T22:59:56.438Z,8.27
2023-05-06T23:04:59.437Z,10.13
2023-05-06T23:10:01.746Z,9.80
2023-05-06T23:15:04.510Z,8.90
2023-05-06T23:20:08.138Z,8.85
2023-05-06T23:25:11.665Z,8.20
2023-05-06T23:30:14.298Z,8.93
2023-05-06T23:35:16.536Z,8.60
2023-05-06T23:40:18.723Z,8.20
2023-05-06T23:45:20.916Z,8.23
2023-05-06T23:50:23.040Z,8.83
2023-05-06T23:55:26.503Z,8.05
